createdAt,value
2018-02-02T00:00:11.237Z,98581.34
2018-02-02T00:02:37.184Z,98580.94
2018-02-02T00:05:03.144Z,98582.11
2018-02-02T00:07:29.108Z,98578.08
2018-02-02T00:09:55.062Z,98586.09
2018-02-02T00:12:20.999Z,98575.16
2018-02-02T00:14:46.953Z,98573.80
2018-02-02T00:17:12.883Z,98566.35
2018-02-02T00:19:38.825Z,98568.02
2018-02-02T00:22:04.759Z,98577.52
2018-02-02T00:24:30.689Z,98577.88
2018-02-02T00:26:56.641Z,98576.90
2018-02-02T00:29:22.575Z,98578.35
2018-02-02T00:31:48.501Z,98591.32
2018-02-02T00:34:14.471Z,98594.14
2018-02-02T00:36:40.442Z,98596.83
2018-02-02T00:39:06.393Z,98587.42
2018-02-02T00:41:32.347Z,98582.35
2018-02-02T00:43:58.611Z,98580.38
2018-02-02T00:46:24.562Z,98580.41
2018-02-02T00:48:50.571Z,98581.72
2018-02-02T00:51:16.483Z,98578.19
2018-02-02T00:53:42.414Z,98576.98
2018-02-02T00:56:08.337Z,98583.34
2018-02-02T00:58:34.263Z,98585.17
2018-02-02T01:01:00.194Z,98579.57
2018-02-02T01:03:26.138Z,98588.35
2018-02-02T01:05:53.087Z,98584.55
2018-02-02T01:08:19.057Z,98585.22
2018-02-02T01:10:44.984Z,98587.23
2018-02-02T01:13:10.909Z,98593.08
2018-02-02T01:15:36.828Z,98596.67
2018-02-02T01:18:02.773Z,98595.55
2018-02-02T01:20:28.845Z,98612.17
2018-02-02T01:22:54.780Z,98614.77
2018-02-02T01:25:20.707Z,98618.97
2018-02-02T01:27:46.638Z,98619.09
2018-02-02T01:30:12.569Z,98623.50
2018-02-02T01:32:38.496Z,98619.86
2018-02-02T01:35:04.430Z,98625.45
2018-02-02T01:37:30.369Z,98625.43
2018-02-02T01:39:56.386Z,98628.05
2018-02-02T01:42:22.322Z,98629.87
2018-02-02T01:44:48.241Z,98625.61
2018-02-02T01:47:14.192Z,98627.16
2018-02-02T01:49:40.116Z,98632.77
2018-02-02T01:52:06.062Z,98632.84
2018-02-02T01:54:31.991Z,98636.56
2018-02-02T01:56:57.930Z,98644.52
2018-02-02T01:59:23.957Z,98644.44
2018-02-02T02:01:49.900Z,98641.89
2018-02-02T02:04:15.818Z,98648.93
2018-02-02T02:06:41.825Z,98639.13
2018-02-02T02:09:07.771Z,98641.34
2018-02-02T02:11:33.746Z,98636.63
2018-02-02T02:13:59.696Z,98635.17
2018-02-02T02:16:25.686Z,98628.45
2018-02-02T02:18:51.610Z,98621.75
2018-02-02T02:21:17.562Z,98629.30
2018-02-02T02:23:43.486Z,98631.07
2018-02-02T02:26:09.428Z,98632.70
2018-02-02T02:28:35.360Z,98640.80
2018-02-02T02:31:01.298Z,98642.61
2018-02-02T02:33:27.291Z,98642.48
2018-02-02T02:35:53.241Z,98640.44
2018-02-02T02:38:19.190Z,98633.75
2018-02-02T02:40:45.127Z,98638.03
2018-02-02T02:43:11.067Z,98636.59
2018-02-02T02:45:36.994Z,98631.25
2018-02-02T02:48:02.914Z,98633.48
2018-02-02T02:50:28.846Z,98632.78
2018-02-02T02:52:54.814Z,98634.98
2018-02-02T02:55:20.772Z,98617.78
2018-02-02T02:57:46.696Z,98639.67
2018-02-02T03:00:12.694Z,98632.19
2018-02-02T03:02:38.636Z,98632.54
2018-02-02T03:05:04.578Z,98636.16
2018-02-02T03:07:30.506Z,98629.97
2018-02-02T03:09:56.443Z,98627.12
2018-02-02T03:12:22.402Z,98634.28
2018-02-02T03:14:48.330Z,98640.06
2018-02-02T03:17:14.250Z,98641.73
2018-02-02T03:19:40.208Z,98642.65
2018-02-02T03:22:06.132Z,98638.69
2018-02-02T03:24:32.072Z,98644.00
2018-02-02T03:26:57.998Z,98640.04
2018-02-02T03:29:23.942Z,98645.63
2018-02-02T03:31:49.918Z,98636.05
2018-02-02T03:34:15.841Z,98632.72
2018-02-02T03:36:41.778Z,98631.60
2018-02-02T03:39:07.714Z,98628.84
2018-02-02T03:41:33.646Z,98631.86
2018-02-02T03:43:59.582Z,98633.10
2018-02-02T03:46:25.539Z,98632.22
2018-02-02T03:48:51.470Z,98637.20
2018-02-02T03:51:17.434Z,98635.11
2018-02-02T03:53:43.374Z,98640.69
2018-02-02T03:56:09.354Z,98641.22
2018-02-02T03:58:35.298Z,98642.31
2018-02-02T04:01:01.226Z,98642.83
2018-02-02T04:03:27.162Z,98650.41
2018-02-02T04:05:53.119Z,98649.52
2018-02-02T04:08:19.051Z,98652.07
2018-02-02T04:10:44.980Z,98654.59
2018-02-02T04:13:10.936Z,98653.08
2018-02-02T04:15:36.899Z,98648.66
2018-02-02T04:18:02.852Z,98651.23
2018-02-02T04:20:28.848Z,98654.59
2018-02-02T04:22:54.903Z,98653.14
2018-02-02T04:25:20.864Z,98651.67
2018-02-02T04:27:46.919Z,98652.72
2018-02-02T04:30:12.945Z,98653.66
2018-02-02T04:32:38.890Z,98657.83
2018-02-02T04:35:04.841Z,98663.27
2018-02-02T04:37:30.810Z,98653.58
2018-02-02T04:39:56.746Z,98664.16
2018-02-02T04:42:22.679Z,98664.54
2018-02-02T04:44:48.621Z,98665.88
2018-02-02T04:47:14.560Z,98667.60
2018-02-02T04:49:40.518Z,98664.73
2018-02-02T04:52:06.458Z,98667.87
2018-02-02T04:54:32.400Z,98669.31
2018-02-02T04:56:58.343Z,98668.03
2018-02-02T04:59:24.266Z,98670.73
2018-02-02T05:01:50.197Z,98666.51
2018-02-02T05:04:16.117Z,98663.70
2018-02-02T05:06:42.053Z,98659.85
2018-02-02T05:09:07.978Z,98656.67
2018-02-02T05:11:33.899Z,98662.41
2018-02-02T05:13:59.823Z,98663.77
2018-02-02T05:16:25.736Z,98663.73
2018-02-02T05:18:51.654Z,98662.09
2018-02-02T05:21:17.587Z,98658.20
2018-02-02T05:23:43.500Z,98660.52
2018-02-02T05:26:09.451Z,98658.47
2018-02-02T05:28:35.397Z,98663.00
2018-02-02T05:31:01.315Z,98661.72
2018-02-02T05:33:27.237Z,98661.09
2018-02-02T05:35:53.181Z,98659.89
2018-02-02T05:38:19.142Z,98656.56
2018-02-02T05:40:45.057Z,98664.13
2018-02-02T05:43:10.987Z,98665.53
2018-02-02T05:45:36.905Z,98665.86
2018-02-02T05:48:02.829Z,98676.97
2018-02-02T05:50:28.763Z,98677.64
2018-02-02T05:52:54.690Z,98673.56
2018-02-02T05:55:20.603Z,98678.02
2018-02-02T05:57:46.569Z,98675.47
2018-02-02T06:00:12.500Z,98679.09
2018-02-02T06:02:38.422Z,98684.98
2018-02-02T06:05:04.368Z,98680.41
2018-02-02T06:07:30.294Z,98686.25
2018-02-02T06:09:56.219Z,98689.54
2018-02-02T06:12:22.293Z,98682.24
2018-02-02T06:14:48.260Z,98693.49
2018-02-02T06:17:14.173Z,98692.23
2018-02-02T06:19:40.109Z,98689.91
2018-02-02T06:22:06.063Z,98686.78
2018-02-02T06:24:32.033Z,98684.15
2018-02-02T06:26:57.951Z,98678.62
2018-02-02T06:29:23.881Z,98681.63
2018-02-02T06:31:49.803Z,98684.34
2018-02-02T06:34:15.744Z,98675.77
2018-02-02T06:36:41.667Z,98682.00
2018-02-02T06:39:07.587Z,98681.59
2018-02-02T06:41:33.511Z,98683.83
2018-02-02T06:43:59.427Z,98684.63
2018-02-02T06:46:25.353Z,98691.98
2018-02-02T06:48:51.311Z,98696.36
2018-02-02T06:51:17.237Z,98693.11
2018-02-02T06:53:43.163Z,98690.50
2018-02-02T06:56:09.106Z,98689.23
2018-02-02T06:58:35.050Z,98688.90
2018-02-02T07:01:00.991Z,98687.47
2018-02-02T07:03:26.973Z,98688.33
2018-02-02T07:05:52.896Z,98685.35
2018-02-02T07:08:18.845Z,98692.96
2018-02-02T07:10:44.893Z,98696.05
2018-02-02T07:13:10.837Z,98707.41
2018-02-02T07:15:36.806Z,98709.25
2018-02-02T07:18:02.749Z,98711.98
2018-02-02T07:20:28.691Z,98708.31
2018-02-02T07:22:54.699Z,98705.97
2018-02-02T07:25:20.623Z,98715.26
2018-02-02T07:27:46.559Z,98719.31
2018-02-02T07:30:12.489Z,98730.36
2018-02-02T07:32:38.429Z,98732.66
2018-02-02T07:35:04.369Z,98733.70
2018-02-02T07:37:30.307Z,98739.86
2018-02-02T07:39:56.244Z,98748.04
2018-02-02T07:42:22.171Z,98752.15
2018-02-02T07:44:48.111Z,98751.43
2018-02-02T07:47:14.095Z,98746.25
2018-02-02T07:49:40.023Z,98741.98
2018-02-02T07:52:05.977Z,98741.74
2018-02-02T07:54:31.937Z,98740.91
2018-02-02T07:56:57.901Z,98738.52
2018-02-02T07:59:23.843Z,98739.24
2018-02-02T08:01:49.785Z,98742.52
2018-02-02T08:04:15.701Z,98746.22
2018-02-02T08:06:41.645Z,98745.95
2018-02-02T08:09:07.576Z,98746.88
2018-02-02T08:11:33.505Z,98747.80
2018-02-02T08:13:59.421Z,98745.48
2018-02-02T08:16:25.357Z,98745.75
2018-02-02T08:18:51.286Z,98740.11
2018-02-02T08:21:17.239Z,98739.75
2018-02-02T08:23:43.193Z,98738.13
2018-02-02T08:26:09.108Z,98737.73
2018-02-02T08:28:35.047Z,98735.39
2018-02-02T08:31:00.973Z,98740.40
2018-02-02T08:33:26.929Z,98746.08
2018-02-02T08:35:52.871Z,98740.86
2018-02-02T08:38:18.821Z,98750.09
2018-02-02T08:40:44.788Z,98737.62
2018-02-02T08:43:10.711Z,98740.12
2018-02-02T08:45:36.637Z,98740.16
2018-02-02T08:48:02.585Z,98746.45
2018-02-02T08:50:28.526Z,98739.67
2018-02-02T08:52:54.453Z,98738.09
2018-02-02T08:55:20.381Z,98729.31
2018-02-02T08:57:46.318Z,98719.31
2018-02-02T09:00:12.263Z,98738.50
2018-02-02T09:02:38.191Z,98736.02
2018-02-02T09:05:04.213Z,98736.44
2018-02-02T09:07:30.237Z,98743.98
2018-02-02T09:09:56.262Z,98738.53
2018-02-02T09:12:22.283Z,98737.70
2018-02-02T09:14:48.313Z,98743.56
2018-02-02T09:17:14.233Z,98739.78
2018-02-02T09:19:40.251Z,98735.20
2018-02-02T09:22:06.198Z,98731.42
2018-02-02T09:24:32.166Z,98738.11
2018-02-02T09:26:58.093Z,98732.67
2018-02-02T09:29:24.045Z,98738.52
2018-02-02T09:31:49.988Z,98738.11
2018-02-02T09:34:15.924Z,98744.79
2018-02-02T09:36:41.845Z,98736.02
2018-02-02T09:39:07.831Z,98740.62
2018-02-02T09:41:33.873Z,98739.77
2018-02-02T09:43:59.811Z,98737.28
2018-02-02T09:46:25.798Z,98736.85
2018-02-02T09:48:51.722Z,98735.20
2018-02-02T09:51:17.643Z,98729.74
2018-02-02T09:53:43.565Z,98722.22
2018-02-02T09:56:09.483Z,98736.88
2018-02-02T09:58:35.411Z,98724.30
2018-02-02T10:01:01.381Z,98726.82
2018-02-02T10:03:27.297Z,98722.20
2018-02-02T10:05:53.287Z,98726.81
2018-02-02T10:08:19.258Z,98730.56
2018-02-02T10:10:45.319Z,98733.52
2018-02-02T10:13:11.365Z,98733.52
2018-02-02T10:15:37.366Z,98732.67
2018-02-02T10:18:03.312Z,98724.30
2018-02-02T10:20:29.238Z,98726.41
2018-02-02T10:22:55.175Z,98723.48
2018-02-02T10:25:21.114Z,98720.55
2018-02-02T10:27:47.046Z,98715.10
2018-02-02T10:30:12.992Z,98712.98
2018-02-02T10:32:38.972Z,98697.97
2018-02-02T10:35:04.910Z,98713.02
2018-02-02T10:37:30.837Z,98709.67
2018-02-02T10:39:56.817Z,98705.92
2018-02-02T10:42:22.867Z,98696.29
2018-02-02T10:44:48.903Z,98698.80
2018-02-02T10:47:14.890Z,98697.97
2018-02-02T10:49:40.833Z,98700.06
2018-02-02T10:52:06.798Z,98701.71
2018-02-02T10:54:32.754Z,98712.44
2018-02-02T10:56:58.694Z,98702.08
2018-02-02T10:59:24.657Z,98699.61
2018-02-02T11:01:50.610Z,98704.25
2018-02-02T11:04:16.626Z,98700.88
2018-02-02T11:06:42.652Z,98700.91
2018-02-02T11:09:08.592Z,98692.48
2018-02-02T11:11:34.554Z,98683.71
2018-02-02T11:14:00.486Z,98681.20
2018-02-02T11:16:26.432Z,98679.95
2018-02-02T11:18:52.370Z,98682.91
2018-02-02T11:21:18.328Z,98690.00
2018-02-02T11:23:44.251Z,98685.42
2018-02-02T11:26:10.174Z,98687.08
2018-02-02T11:28:36.102Z,98678.28
2018-02-02T11:31:02.036Z,98676.19
2018-02-02T11:33:28.206Z,98672.02
2018-02-02T11:35:54.136Z,98668.23
2018-02-02T11:38:20.066Z,98672.00
2018-02-02T11:40:45.986Z,98678.70
2018-02-02T11:43:11.926Z,98670.31
2018-02-02T11:45:37.887Z,98674.09
2018-02-02T11:48:03.844Z,98664.02
2018-02-02T11:50:29.804Z,98658.59
2018-02-02T11:52:55.718Z,98663.22
2018-02-02T11:55:21.647Z,98658.23
2018-02-02T11:57:47.570Z,98651.97
2018-02-02T12:00:13.514Z,98646.95
2018-02-02T12:02:39.451Z,98653.61
2018-02-02T12:05:05.386Z,98645.27
2018-02-02T12:07:31.326Z,98639.81
2018-02-02T12:09:57.282Z,98640.64
2018-02-02T12:12:23.202Z,98639.41
2018-02-02T12:14:49.150Z,98638.58
2018-02-02T12:17:15.116Z,98633.54
2018-02-02T12:19:41.075Z,98641.02
2018-02-02T12:22:07.002Z,98636.83
2018-02-02T12:24:32.942Z,98640.21
2018-02-02T12:26:58.865Z,98629.72
2018-02-02T12:29:24.813Z,98633.97
2018-02-02T12:31:50.748Z,98624.30
2018-02-02T12:34:16.715Z,98620.54
2018-02-02T12:36:42.661Z,98615.95
2018-02-02T12:39:08.656Z,98615.09
2018-02-02T12:41:34.584Z,98615.89
2018-02-02T12:44:00.531Z,98614.70
2018-02-02T12:46:26.498Z,98613.86
2018-02-02T12:48:52.467Z,98623.02
2018-02-02T12:51:18.402Z,98612.13
2018-02-02T12:53:44.385Z,98610.05
2018-02-02T12:56:10.330Z,98621.31
2018-02-02T12:58:36.260Z,98623.83
2018-02-02T13:01:02.191Z,98618.80
2018-02-02T13:03:28.203Z,98616.27
2018-02-02T13:05:54.126Z,98608.25
2018-02-02T13:08:20.169Z,98607.44
2018-02-02T13:10:46.113Z,98614.64
2018-02-02T13:13:12.041Z,98612.93
2018-02-02T13:15:37.991Z,98605.82
2018-02-02T13:18:03.922Z,98617.11
2018-02-02T13:20:29.869Z,98617.11
2018-02-02T13:22:55.926Z,98612.13
2018-02-02T13:25:21.948Z,98615.43
2018-02-02T13:27:47.907Z,98610.41
2018-02-02T13:30:13.829Z,98613.79
2018-02-02T13:32:39.775Z,98603.26
2018-02-02T13:35:05.715Z,98602.87
2018-02-02T13:37:31.645Z,98601.16
2018-02-02T13:39:57.607Z,98602.44
2018-02-02T13:42:23.541Z,98609.11
2018-02-02T13:44:49.530Z,98604.08
2018-02-02T13:47:15.473Z,98601.12
2018-02-02T13:49:41.413Z,98604.06
2018-02-02T13:52:07.401Z,98603.22
2018-02-02T13:54:33.355Z,98610.36
2018-02-02T13:56:59.354Z,98609.07
2018-02-02T13:59:25.305Z,98605.30
2018-02-02T14:01:51.239Z,98611.61
2018-02-02T14:04:17.187Z,98620.86
2018-02-02T14:06:43.133Z,98618.36
2018-02-02T14:09:09.067Z,98623.84
2018-02-02T14:11:34.994Z,98625.97
2018-02-02T14:14:00.962Z,98629.69
2018-02-02T14:16:26.882Z,98634.32
2018-02-02T14:18:52.820Z,98634.38
2018-02-02T14:21:18.744Z,98631.79
2018-02-02T14:23:44.735Z,98637.67
2018-02-02T14:26:10.687Z,98640.22
2018-02-02T14:28:36.626Z,98642.30
2018-02-02T14:31:02.545Z,98638.91
2018-02-02T14:33:28.514Z,98642.71
2018-02-02T14:35:54.445Z,98645.21
2018-02-02T14:38:20.383Z,98639.36
2018-02-02T14:40:46.301Z,98633.47
2018-02-02T14:43:12.241Z,98639.80
2018-02-02T14:45:38.173Z,98635.66
2018-02-02T14:48:04.156Z,98636.03
2018-02-02T14:50:30.102Z,98634.80
2018-02-02T14:52:56.049Z,98637.31
2018-02-02T14:55:21.997Z,98642.30
2018-02-02T14:57:47.941Z,98639.41
2018-02-02T15:00:13.890Z,98639.81
2018-02-02T15:02:39.829Z,98641.91
2018-02-02T15:05:05.781Z,98643.59
2018-02-02T15:07:31.729Z,98642.72
2018-02-02T15:09:57.694Z,98634.84
2018-02-02T15:12:23.633Z,98648.62
2018-02-02T15:14:49.589Z,98651.10
2018-02-02T15:17:15.521Z,98655.95
2018-02-02T15:19:41.467Z,98657.70
2018-02-02T15:22:07.404Z,98655.65
2018-02-02T15:24:33.368Z,98655.22
2018-02-02T15:26:59.318Z,98653.53
2018-02-02T15:29:25.246Z,98651.02
2018-02-02T15:31:51.174Z,98657.75
2018-02-02T15:34:17.120Z,98657.77
2018-02-02T15:36:43.054Z,98654.02
2018-02-02T15:39:09.026Z,98657.80
2018-02-02T15:41:34.957Z,98659.87
2018-02-02T15:44:00.904Z,98659.91
2018-02-02T15:46:26.876Z,98666.16
2018-02-02T15:48:52.838Z,98662.82
2018-02-02T15:51:18.808Z,98669.52
2018-02-02T15:53:44.780Z,98667.42
2018-02-02T15:56:10.806Z,98664.50
2018-02-02T15:58:36.735Z,98667.83
2018-02-02T16:01:02.672Z,98670.33
2018-02-02T16:03:28.626Z,98677.03
2018-02-02T16:05:54.557Z,98674.13
2018-02-02T16:08:20.497Z,98676.20
2018-02-02T16:10:46.464Z,98671.20
2018-02-02T16:13:12.406Z,98673.73
2018-02-02T16:15:38.346Z,98669.51
2018-02-02T16:18:04.301Z,98671.22
2018-02-02T16:20:30.253Z,98678.66
2018-02-02T16:22:56.195Z,98676.88
2018-02-02T16:25:22.140Z,98677.20
2018-02-02T16:27:48.113Z,98678.03
2018-02-02T16:30:14.051Z,98679.92
2018-02-02T16:32:39.981Z,98681.87
2018-02-02T16:35:05.950Z,98685.05
2018-02-02T16:37:31.877Z,98682.36
2018-02-02T16:39:57.827Z,98684.52
2018-02-02T16:42:23.770Z,98680.80
2018-02-02T16:44:49.766Z,98679.52
2018-02-02T16:47:15.730Z,98690.83
2018-02-02T16:49:41.695Z,98694.19
2018-02-02T16:52:07.621Z,98694.61
2018-02-02T16:54:33.553Z,98694.21
2018-02-02T16:56:59.496Z,98700.45
2018-02-02T16:59:25.414Z,98701.72
2018-02-02T17:01:51.390Z,98705.06
2018-02-02T17:04:17.379Z,98710.50
2018-02-02T17:06:43.315Z,98715.94
2018-02-02T17:09:09.276Z,98719.71
2018-02-02T17:11:35.290Z,98718.45
2018-02-02T17:14:01.250Z,98716.35
2018-02-02T17:16:27.216Z,98720.53
2018-02-02T17:18:53.168Z,98723.06
2018-02-02T17:21:19.106Z,98729.77
2018-02-02T17:23:45.057Z,98723.49
2018-02-02T17:26:11.008Z,98723.48
2018-02-02T17:28:36.979Z,98730.59
2018-02-02T17:31:02.931Z,98724.32
2018-02-02T17:33:28.874Z,98731.85
2018-02-02T17:35:54.858Z,98739.36
2018-02-02T17:38:20.819Z,98728.91
2018-02-02T17:40:46.769Z,98735.61
2018-02-02T17:43:12.719Z,98736.44
2018-02-02T17:45:38.646Z,98744.80
2018-02-02T17:48:04.578Z,98738.13
2018-02-02T17:50:30.599Z,98737.69
2018-02-02T17:52:56.567Z,98732.27
2018-02-02T17:55:22.493Z,98733.52
2018-02-02T17:57:48.439Z,98737.70
2018-02-02T18:00:14.381Z,98736.86
2018-02-02T18:02:40.337Z,98735.16
2018-02-02T18:05:06.287Z,98747.72
2018-02-02T18:07:32.243Z,98742.73
2018-02-02T18:09:58.278Z,98738.53
2018-02-02T18:12:24.231Z,98736.84
2018-02-02T18:14:50.215Z,98729.75
2018-02-02T18:17:16.193Z,98732.27
2018-02-02T18:19:42.152Z,98730.18
2018-02-02T18:22:08.173Z,98725.99
2018-02-02T18:24:34.132Z,98730.58
2018-02-02T18:27:00.198Z,98741.89
2018-02-02T18:29:26.281Z,98743.13
2018-02-02T18:31:52.309Z,98742.31
2018-02-02T18:34:18.395Z,98745.23
2018-02-02T18:36:44.396Z,98746.05
2018-02-02T18:39:10.390Z,98746.89
2018-02-02T18:41:36.403Z,98752.27
2018-02-02T18:44:02.367Z,98749.39
2018-02-02T18:46:28.319Z,98743.13
2018-02-02T18:48:54.279Z,98753.56
2018-02-02T18:51:22.441Z,98755.25
2018-02-02T18:53:48.395Z,98751.47
2018-02-02T18:56:14.439Z,98748.95
2018-02-02T18:58:40.420Z,98746.45
2018-02-02T19:01:06.393Z,98748.56
2018-02-02T19:03:32.337Z,98750.66
2018-02-02T19:05:58.277Z,98756.94
2018-02-02T19:08:24.207Z,98743.55
2018-02-02T19:10:50.164Z,98751.93
2018-02-02T19:13:16.100Z,98742.31
2018-02-02T19:15:42.021Z,98746.06
2018-02-02T19:18:07.956Z,98746.47
2018-02-02T19:20:35.059Z,98749.41
2018-02-02T19:23:01.014Z,98746.91
2018-02-02T19:25:26.994Z,98745.65
2018-02-02T19:27:52.948Z,98736.01
2018-02-02T19:30:18.888Z,98738.12
2018-02-02T19:32:44.834Z,98741.88
2018-02-02T19:35:10.784Z,98728.05
2018-02-02T19:37:36.742Z,98726.82
2018-02-02T19:40:02.678Z,98723.03
2018-02-02T19:42:28.743Z,98720.13
2018-02-02T19:44:54.717Z,98716.34
2018-02-02T19:47:20.680Z,98712.98
2018-02-02T19:49:46.624Z,98715.94
2018-02-02T19:52:12.564Z,98714.67
2018-02-02T19:54:38.530Z,98713.84
2018-02-02T19:57:04.475Z,98707.97
2018-02-02T19:59:31.075Z,98710.06
2018-02-02T20:01:57.040Z,98708.41
2018-02-02T20:04:22.976Z,98712.19
2018-02-02T20:06:48.910Z,98707.17
2018-02-02T20:09:14.885Z,98713.04
2018-02-02T20:11:40.830Z,98711.36
2018-02-02T20:14:06.789Z,98704.25
2018-02-02T20:16:32.763Z,98715.11
2018-02-02T20:18:58.734Z,98710.90
2018-02-02T20:21:24.780Z,98713.42
2018-02-02T20:23:50.741Z,98712.99
2018-02-02T20:26:16.684Z,98722.21
2018-02-02T20:28:42.630Z,98718.44
2018-02-02T20:31:08.696Z,98715.52
2018-02-02T20:33:34.673Z,98723.88
2018-02-02T20:36:00.615Z,98717.64
2018-02-02T20:38:26.571Z,98721.79
2018-02-02T20:40:52.507Z,98728.51
2018-02-02T20:43:18.488Z,98718.89
2018-02-02T20:45:44.419Z,98728.52
2018-02-02T20:48:10.394Z,98721.80
2018-02-02T20:50:36.332Z,98723.88
2018-02-02T20:53:02.310Z,98719.70
2018-02-02T20:55:28.272Z,98721.36
2018-02-02T20:57:54.333Z,98719.31
2018-02-02T21:00:20.341Z,98717.60
2018-02-02T21:02:46.292Z,98718.87
2018-02-02T21:05:12.280Z,98716.77
2018-02-02T21:07:38.332Z,98715.11
2018-02-02T21:10:04.329Z,98713.84
2018-02-02T21:12:30.266Z,98708.42
2018-02-02T21:14:56.615Z,98708.83
2018-02-02T21:17:22.548Z,98708.83
2018-02-02T21:19:48.488Z,98709.68
2018-02-02T21:22:14.442Z,98710.52
2018-02-02T21:24:40.374Z,98710.09
2018-02-02T21:27:06.318Z,98710.92
2018-02-02T21:29:32.253Z,98702.55
2018-02-02T21:31:58.262Z,98705.48
2018-02-02T21:34:24.280Z,98703.83
2018-02-02T21:36:50.284Z,98700.05
2018-02-02T21:39:16.225Z,98690.44
2018-02-02T21:41:42.252Z,98699.23
2018-02-02T21:44:08.273Z,98698.40
2018-02-02T21:46:34.210Z,98694.61
2018-02-02T21:49:00.217Z,98691.70
2018-02-02T21:51:26.131Z,98693.37
2018-02-02T21:53:52.186Z,98691.70
2018-02-02T21:56:18.142Z,98692.55
2018-02-02T21:58:44.076Z,98698.39
2018-02-02T22:01:10.028Z,98692.53
2018-02-02T22:03:35.957Z,98694.62
2018-02-02T22:06:01.911Z,98698.39
2018-02-02T22:08:27.916Z,98698.79
2018-02-02T22:10:53.845Z,98697.55
2018-02-02T22:13:19.783Z,98696.71
2018-02-02T22:15:45.752Z,98702.56
2018-02-02T22:18:11.700Z,98704.23
2018-02-02T22:20:37.697Z,98703.83
2018-02-02T22:23:03.621Z,98703.39
2018-02-02T22:25:29.579Z,98705.48
2018-02-02T22:27:55.518Z,98700.88
2018-02-02T22:30:21.470Z,98708.83
2018-02-02T22:32:47.391Z,98705.48
2018-02-02T22:35:13.327Z,98705.48
2018-02-02T22:37:39.249Z,98702.56
2018-02-02T22:40:05.210Z,98700.06
2018-02-02T22:42:31.155Z,98695.88
2018-02-02T22:44:57.130Z,98697.96
2018-02-02T22:47:23.064Z,98702.97
2018-02-02T22:49:49.018Z,98701.69
2018-02-02T22:52:14.943Z,98701.73
2018-02-02T22:54:40.885Z,98705.06
2018-02-02T22:57:06.806Z,98700.05
2018-02-02T22:59:32.735Z,98704.64
2018-02-02T23:01:58.681Z,98703.38
2018-02-02T23:04:24.727Z,98707.98
2018-02-02T23:06:50.654Z,98709.64
2018-02-02T23:09:16.575Z,98706.31
2018-02-02T23:11:42.521Z,98707.17
2018-02-02T23:14:08.454Z,98699.20
2018-02-02T23:16:34.398Z,98693.36
2018-02-02T23:19:00.336Z,98703.80
2018-02-02T23:21:26.284Z,98698.37
2018-02-02T23:23:52.199Z,98697.53
2018-02-02T23:26:18.142Z,98698.37
2018-02-02T23:28:44.086Z,98694.62
2018-02-02T23:31:10.037Z,98702.16
2018-02-02T23:33:35.983Z,98691.70
2018-02-02T23:36:01.916Z,98691.70
2018-02-02T23:38:27.859Z,98694.20
2018-02-02T23:40:53.805Z,98695.45
2018-02-02T23:43:19.744Z,98693.78
2018-02-02T23:45:45.685Z,98689.19
2018-02-02T23:48:11.606Z,98691.68
2018-02-02T23:50:37.551Z,98682.91
2018-02-02T23:53:03.512Z,98677.05
2018-02-02T23:55:29.461Z,98672.06
2018-02-02T23:57:55.394Z,98672.88
